sensor_id;sensor_type;location;lat;lon;timestamp;temperature;humidity
5086;DHT22;4715;51.660;7.082;2023-08-17T00:00:04;20.60;99.90
5086;DHT22;4715;51.660;7.082;2023-08-17T00:02:29;20.60;99.90
5086;DHT22;4715;51.660;7.082;2023-08-17T00:04:51;20.60;99.90
5086;DHT22;4715;51.660;7.082;2023-08-17T00:07:12;20.60;99.90
5086;DHT22;4715;51.660;7.082;2023-08-17T00:09:34;20.60;99.90
5086;DHT22;4715;51.660;7.082;2023-08-17T00:11:56;20.60;99.90
5086;DHT22;4715;51.660;7.082;2023-08-17T00:14:19;20.60;99.90
5086;DHT22;4715;51.660;7.082;2023-08-17T00:16:41;20.60;99.90
5086;DHT22;4715;51.660;7.082;2023-08-17T00:19:03;20.50;99.90
5086;DHT22;4715;51.660;7.082;2023-08-17T00:21:25;20.50;99.90
5086;DHT22;4715;51.660;7.082;2023-08-17T00:23:47;20.40;99.90
5086;DHT22;4715;51.660;7.082;2023-08-17T00:26:09;20.40;99.90
5086;DHT22;4715;51.660;7.082;2023-08-17T00:28:31;20.30;99.90
5086;DHT22;4715;51.660;7.082;2023-08-17T00:30:54;20.30;99.90
5086;DHT22;4715;51.660;7.082;2023-08-17T00:33:16;20.20;99.90
5086;DHT22;4715;51.660;7.082;2023-08-17T00:35:38;20.10;99.90
5086;DHT22;4715;51.660;7.082;2023-08-17T00:38:00;20.10;99.90
5086;DHT22;4715;51.660;7.082;2023-08-17T00:40:22;20.00;99.90
5086;DHT22;4715;51.660;7.082;2023-08-17T00:42:43;20.00;99.90
5086;DHT22;4715;51.660;7.082;2023-08-17T00:45:06;19.90;99.90
5086;DHT22;4715;51.660;7.082;2023-08-17T00:47:29;19.90;99.90
5086;DHT22;4715;51.660;7.082;2023-08-17T00:49:51;19.90;99.90
5086;DHT22;4715;51.660;7.082;2023-08-17T00:52:13;19.80;99.90
5086;DHT22;4715;51.660;7.082;2023-08-17T00:54:35;19.80;99.90
5086;DHT22;4715;51.660;7.082;2023-08-17T00:56:57;19.70;99.90
5086;DHT22;4715;51.660;7.082;2023-08-17T00:59:19;19.60;99.90
5086;DHT22;4715;51.660;7.082;2023-08-17T01:01:42;19.60;99.90
5086;DHT22;4715;51.660;7.082;2023-08-17T01:04:05;19.50;99.90
5086;DHT22;4715;51.660;7.082;2023-08-17T01:06:27;19.50;99.90
5086;DHT22;4715;51.660;7.082;2023-08-17T01:08:49;19.40;99.90
5086;DHT22;4715;51.660;7.082;2023-08-17T01:11:17;19.40;99.90
5086;DHT22;4715;51.660;7.082;2023-08-17T01:13:48;19.30;99.90
5086;DHT22;4715;51.660;7.082;2023-08-17T01:16:14;19.20;99.90
5086;DHT22;4715;51.660;7.082;2023-08-17T01:18:38;19.20;99.90
5086;DHT22;4715;51.660;7.082;2023-08-17T01:21:05;19.10;99.90
5086;DHT22;4715;51.660;7.082;2023-08-17T01:23:29;19.10;99.90
5086;DHT22;4715;51.660;7.082;2023-08-17T01:25:52;19.00;99.90
5086;DHT22;4715;51.660;7.082;2023-08-17T01:28:14;19.00;99.90
5086;DHT22;4715;51.660;7.082;2023-08-17T01:30:42;19.00;99.90
5086;DHT22;4715;51.660;7.082;2023-08-17T01:33:07;19.00;99.90
5086;DHT22;4715;51.660;7.082;2023-08-17T01:35:34;18.90;99.90
5086;DHT22;4715;51.660;7.082;2023-08-17T01:38:01;18.90;99.90
5086;DHT22;4715;51.660;7.082;2023-08-17T01:40:26;18.80;99.90
5086;DHT22;4715;51.660;7.082;2023-08-17T01:42:50;18.80;99.90
5086;DHT22;4715;51.660;7.082;2023-08-17T01:45:12;18.80;99.90
5086;DHT22;4715;51.660;7.082;2023-08-17T01:47:35;18.80;99.90
5086;DHT22;4715;51.660;7.082;2023-08-17T01:49:57;18.80;99.90
5086;DHT22;4715;51.660;7.082;2023-08-17T01:52:20;18.80;99.90
5086;DHT22;4715;51.660;7.082;2023-08-17T01:54:41;18.80;99.90
5086;DHT22;4715;51.660;7.082;2023-08-17T01:57:05;18.70;99.90
5086;DHT22;4715;51.660;7.082;2023-08-17T01:59:27;18.70;99.90
5086;DHT22;4715;51.660;7.082;2023-08-17T02:01:48;18.70;99.90
5086;DHT22;4715;51.660;7.082;2023-08-17T02:04:10;18.70;99.90
5086;DHT22;4715;51.660;7.082;2023-08-17T02:06:32;18.70;99.90
5086;DHT22;4715;51.660;7.082;2023-08-17T02:08:54;18.60;99.90
5086;DHT22;4715;51.660;7.082;2023-08-17T02:11:15;18.60;99.90
5086;DHT22;4715;51.660;7.082;2023-08-17T02:13:39;18.60;99.90
5086;DHT22;4715;51.660;7.082;2023-08-17T02:16:00;18.60;99.90
5086;DHT22;4715;51.660;7.082;2023-08-17T02:18:22;18.60;99.90
5086;DHT22;4715;51.660;7.082;2023-08-17T02:20:45;18.60;99.90
5086;DHT22;4715;51.660;7.082;2023-08-17T02:23:07;18.60;99.90
5086;DHT22;4715;51.660;7.082;2023-08-17T02:25:28;18.60;99.90
5086;DHT22;4715;51.660;7.082;2023-08-17T02:27:55;18.50;99.90
5086;DHT22;4715;51.660;7.082;2023-08-17T02:30:19;18.60;99.90
5086;DHT22;4715;51.660;7.082;2023-08-17T02:32:41;18.50;99.90
5086;DHT22;4715;51.660;7.082;2023-08-17T02:35:03;18.60;99.90
5086;DHT22;4715;51.660;7.082;2023-08-17T02:37:24;18.60;99.90
5086;DHT22;4715;51.660;7.082;2023-08-17T02:39:46;18.60;99.90
5086;DHT22;4715;51.660;7.082;2023-08-17T02:42:08;18.60;99.90
5086;DHT22;4715;51.660;7.082;2023-08-17T02:44:30;18.50;99.90
5086;DHT22;4715;51.660;7.082;2023-08-17T02:46:53;18.50;99.90
5086;DHT22;4715;51.660;7.082;2023-08-17T02:49:15;18.50;99.90
5086;DHT22;4715;51.660;7.082;2023-08-17T02:51:36;18.50;99.90
5086;DHT22;4715;51.660;7.082;2023-08-17T02:53:58;18.50;99.90
5086;DHT22;4715;51.660;7.082;2023-08-17T02:56:20;18.40;99.90
5086;DHT22;4715;51.660;7.082;2023-08-17T02:58:42;18.40;99.90
5086;DHT22;4715;51.660;7.082;2023-08-17T03:01:03;18.40;99.90
5086;DHT22;4715;51.660;7.082;2023-08-17T03:03:27;18.40;99.90
5086;DHT22;4715;51.660;7.082;2023-08-17T03:05:48;18.40;99.90
5086;DHT22;4715;51.660;7.082;2023-08-17T03:08:10;18.40;99.90
5086;DHT22;4715;51.660;7.082;2023-08-17T03:10:32;18.30;99.90
5086;DHT22;4715;51.660;7.082;2023-08-17T03:12:54;18.30;99.90
5086;DHT22;4715;51.660;7.082;2023-08-17T03:15:16;18.30;99.90
5086;DHT22;4715;51.660;7.082;2023-08-17T03:17:38;18.30;99.90
5086;DHT22;4715;51.660;7.082;2023-08-17T03:20:01;18.30;99.90
5086;DHT22;4715;51.660;7.082;2023-08-17T03:22:25;18.30;99.90
5086;DHT22;4715;51.660;7.082;2023-08-17T03:24:47;18.30;99.90
5086;DHT22;4715;51.660;7.082;2023-08-17T03:27:09;18.30;99.90
5086;DHT22;4715;51.660;7.082;2023-08-17T03:29:31;18.30;99.90
5086;DHT22;4715;51.660;7.082;2023-08-17T03:31:52;18.30;99.90
5086;DHT22;4715;51.660;7.082;2023-08-17T03:34:14;18.30;99.90
5086;DHT22;4715;51.660;7.082;2023-08-17T03:36:37;18.30;99.90
5086;DHT22;4715;51.660;7.082;2023-08-17T03:38:59;18.30;99.90
5086;DHT22;4715;51.660;7.082;2023-08-17T03:41:21;18.30;99.90
5086;DHT22;4715;51.660;7.082;2023-08-17T03:43:43;18.30;99.90
5086;DHT22;4715;51.660;7.082;2023-08-17T03:46:05;18.30;99.90
5086;DHT22;4715;51.660;7.082;2023-08-17T03:48:27;18.30;99.90
5086;DHT22;4715;51.660;7.082;2023-08-17T03:50:51;18.30;99.90
5086;DHT22;4715;51.660;7.082;2023-08-17T03:53:14;18.30;99.90
5086;DHT22;4715;51.660;7.082;2023-08-17T03:55:36;18.30;99.90
5086;DHT22;4715;51.660;7.082;2023-08-17T03:57:58;18.30;99.90
5086;DHT22;4715;51.660;7.082;2023-08-17T04:00:21;18.30;99.90
5086;DHT22;4715;51.660;7.082;2023-08-17T04:02:43;18.20;99.90
5086;DHT22;4715;51.660;7.082;2023-08-17T04:05:05;18.20;99.90
5086;DHT22;4715;51.660;7.082;2023-08-17T04:07:28;18.20;99.90
5086;DHT22;4715;51.660;7.082;2023-08-17T04:09:51;18.20;99.90
5086;DHT22;4715;51.660;7.082;2023-08-17T04:12:14;18.20;99.90
5086;DHT22;4715;51.660;7.082;2023-08-17T04:14:36;18.20;99.90
5086;DHT22;4715;51.660;7.082;2023-08-17T04:16:58;18.20;99.90
5086;DHT22;4715;51.660;7.082;2023-08-17T04:19:20;18.20;99.90
5086;DHT22;4715;51.660;7.082;2023-08-17T04:21:41;18.10;99.90
5086;DHT22;4715;51.660;7.082;2023-08-17T04:24:04;18.10;99.90
5086;DHT22;4715;51.660;7.082;2023-08-17T04:26:27;18.10;99.90
5086;DHT22;4715;51.660;7.082;2023-08-17T04:28:49;18.20;99.90
5086;DHT22;4715;51.660;7.082;2023-08-17T04:31:11;18.20;99.90
5086;DHT22;4715;51.660;7.082;2023-08-17T04:33:33;18.20;99.90
5086;DHT22;4715;51.660;7.082;2023-08-17T04:35:55;18.20;99.90
5086;DHT22;4715;51.660;7.082;2023-08-17T04:38:17;18.20;99.90
5086;DHT22;4715;51.660;7.082;2023-08-17T04:40:38;18.20;99.90
5086;DHT22;4715;51.660;7.082;2023-08-17T04:43:02;18.20;99.90
5086;DHT22;4715;51.660;7.082;2023-08-17T04:45:24;18.30;99.90
5086;DHT22;4715;51.660;7.082;2023-08-17T04:47:47;18.30;99.90
5086;DHT22;4715;51.660;7.082;2023-08-17T04:50:09;18.30;99.90
5086;DHT22;4715;51.660;7.082;2023-08-17T04:52:33;18.30;99.90
5086;DHT22;4715;51.660;7.082;2023-08-17T04:54:56;18.30;99.90
5086;DHT22;4715;51.660;7.082;2023-08-17T04:57:18;18.30;99.90
5086;DHT22;4715;51.660;7.082;2023-08-17T04:59:41;18.30;99.90
5086;DHT22;4715;51.660;7.082;2023-08-17T05:02:03;18.30;99.90
5086;DHT22;4715;51.660;7.082;2023-08-17T05:04:25;18.30;99.90
5086;DHT22;4715;51.660;7.082;2023-08-17T05:06:47;18.30;99.90
5086;DHT22;4715;51.660;7.082;2023-08-17T05:09:09;18.30;99.90
5086;DHT22;4715;51.660;7.082;2023-08-17T05:11:31;18.30;99.90
5086;DHT22;4715;51.660;7.082;2023-08-17T05:13:53;18.40;99.90
5086;DHT22;4715;51.660;7.082;2023-08-17T05:16:18;18.40;99.90
5086;DHT22;4715;51.660;7.082;2023-08-17T05:18:40;18.40;99.90
5086;DHT22;4715;51.660;7.082;2023-08-17T05:21:02;18.40;99.90
5086;DHT22;4715;51.660;7.082;2023-08-17T05:23:24;18.50;99.90
5086;DHT22;4715;51.660;7.082;2023-08-17T05:25:46;18.50;99.90
5086;DHT22;4715;51.660;7.082;2023-08-17T05:28:08;18.50;99.90
5086;DHT22;4715;51.660;7.082;2023-08-17T05:30:30;18.50;99.90
5086;DHT22;4715;51.660;7.082;2023-08-17T05:32:53;18.40;99.90
5086;DHT22;4715;51.660;7.082;2023-08-17T05:35:15;18.40;99.90
5086;DHT22;4715;51.660;7.082;2023-08-17T05:37:37;18.40;99.90
5086;DHT22;4715;51.660;7.082;2023-08-17T05:39:59;18.40;99.90
5086;DHT22;4715;51.660;7.082;2023-08-17T05:42:21;18.40;99.90
5086;DHT22;4715;51.660;7.082;2023-08-17T05:44:43;18.40;99.90
5086;DHT22;4715;51.660;7.082;2023-08-17T05:47:04;18.40;99.90
5086;DHT22;4715;51.660;7.082;2023-08-17T05:49:28;18.40;99.90
5086;DHT22;4715;51.660;7.082;2023-08-17T05:51:50;18.50;99.90
5086;DHT22;4715;51.660;7.082;2023-08-17T05:54:11;18.50;99.90
5086;DHT22;4715;51.660;7.082;2023-08-17T05:56:34;18.50;99.90
5086;DHT22;4715;51.660;7.082;2023-08-17T05:58:56;18.50;99.90
5086;DHT22;4715;51.660;7.082;2023-08-17T06:01:18;18.50;99.90
5086;DHT22;4715;51.660;7.082;2023-08-17T06:03:40;18.50;99.90
5086;DHT22;4715;51.660;7.082;2023-08-17T06:06:04;18.50;99.90
5086;DHT22;4715;51.660;7.082;2023-08-17T06:08:26;18.50;99.90
5086;DHT22;4715;51.660;7.082;2023-08-17T06:10:48;18.50;99.90
5086;DHT22;4715;51.660;7.082;2023-08-17T06:13:10;18.60;99.90
5086;DHT22;4715;51.660;7.082;2023-08-17T06:15:32;18.60;99.90
5086;DHT22;4715;51.660;7.082;2023-08-17T06:17:54;18.60;99.90
5086;DHT22;4715;51.660;7.082;2023-08-17T06:20:16;18.60;99.90
5086;DHT22;4715;51.660;7.082;2023-08-17T06:22:39;18.60;99.90
5086;DHT22;4715;51.660;7.082;2023-08-17T06:25:01;18.60;99.90
5086;DHT22;4715;51.660;7.082;2023-08-17T06:27:26;18.60;99.90
5086;DHT22;4715;51.660;7.082;2023-08-17T06:29:55;18.60;99.90
5086;DHT22;4715;51.660;7.082;2023-08-17T06:32:17;18.60;99.90
5086;DHT22;4715;51.660;7.082;2023-08-17T06:34:39;18.50;99.90
5086;DHT22;4715;51.660;7.082;2023-08-17T06:37:03;18.50;99.90
5086;DHT22;4715;51.660;7.082;2023-08-17T06:39:27;18.50;99.90
5086;DHT22;4715;51.660;7.082;2023-08-17T06:41:50;18.60;99.90
5086;DHT22;4715;51.660;7.082;2023-08-17T06:44:13;18.50;99.90
5086;DHT22;4715;51.660;7.082;2023-08-17T06:46:35;18.60;99.90
5086;DHT22;4715;51.660;7.082;2023-08-17T06:48:57;18.50;99.90
5086;DHT22;4715;51.660;7.082;2023-08-17T06:51:19;18.60;99.90
5086;DHT22;4715;51.660;7.082;2023-08-17T06:53:42;18.60;99.90
5086;DHT22;4715;51.660;7.082;2023-08-17T06:56:06;18.60;99.90
5086;DHT22;4715;51.660;7.082;2023-08-17T06:58:28;18.60;99.90
5086;DHT22;4715;51.660;7.082;2023-08-17T07:00:51;18.60;99.90
5086;DHT22;4715;51.660;7.082;2023-08-17T07:03:13;18.60;99.90
5086;DHT22;4715;51.660;7.082;2023-08-17T07:05:35;18.60;99.90
5086;DHT22;4715;51.660;7.082;2023-08-17T07:07:57;18.60;99.90
5086;DHT22;4715;51.660;7.082;2023-08-17T07:10:20;18.60;99.90
5086;DHT22;4715;51.660;7.082;2023-08-17T07:12:46;18.70;99.90
5086;DHT22;4715;51.660;7.082;2023-08-17T07:15:09;18.70;99.90
5086;DHT22;4715;51.660;7.082;2023-08-17T07:17:45;18.70;99.90
5086;DHT22;4715;51.660;7.082;2023-08-17T07:20:08;18.70;99.90
5086;DHT22;4715;51.660;7.082;2023-08-17T07:22:31;18.70;99.90
5086;DHT22;4715;51.660;7.082;2023-08-17T07:24:57;18.70;99.90
5086;DHT22;4715;51.660;7.082;2023-08-17T07:27:20;18.80;99.90
5086;DHT22;4715;51.660;7.082;2023-08-17T07:29:44;18.80;99.90
5086;DHT22;4715;51.660;7.082;2023-08-17T07:32:07;18.80;99.90
5086;DHT22;4715;51.660;7.082;2023-08-17T07:34:32;18.80;99.90
5086;DHT22;4715;51.660;7.082;2023-08-17T07:36:53;18.90;99.90
5086;DHT22;4715;51.660;7.082;2023-08-17T07:39:16;18.90;99.90
5086;DHT22;4715;51.660;7.082;2023-08-17T07:41:42;18.90;99.90
5086;DHT22;4715;51.660;7.082;2023-08-17T07:44:05;19.00;99.90
5086;DHT22;4715;51.660;7.082;2023-08-17T07:46:30;19.00;99.90
5086;DHT22;4715;51.660;7.082;2023-08-17T07:48:52;19.00;99.90
5086;DHT22;4715;51.660;7.082;2023-08-17T07:51:14;19.00;99.90
5086;DHT22;4715;51.660;7.082;2023-08-17T07:53:43;19.00;99.90
5086;DHT22;4715;51.660;7.082;2023-08-17T07:56:11;19.00;99.90
5086;DHT22;4715;51.660;7.082;2023-08-17T07:58:33;19.10;99.90
5086;DHT22;4715;51.660;7.082;2023-08-17T08:00:57;19.00;99.90
5086;DHT22;4715;51.660;7.082;2023-08-17T08:03:20;19.10;99.90
5086;DHT22;4715;51.660;7.082;2023-08-17T08:05:48;19.10;99.90
5086;DHT22;4715;51.660;7.082;2023-08-17T08:08:10;19.10;99.90
5086;DHT22;4715;51.660;7.082;2023-08-17T08:10:35;19.10;99.90
5086;DHT22;4715;51.660;7.082;2023-08-17T08:12:57;19.10;99.90
5086;DHT22;4715;51.660;7.082;2023-08-17T08:15:19;19.10;99.90
5086;DHT22;4715;51.660;7.082;2023-08-17T08:17:41;19.10;99.90
5086;DHT22;4715;51.660;7.082;2023-08-17T08:20:06;19.10;99.90
5086;DHT22;4715;51.660;7.082;2023-08-17T08:22:28;19.10;99.90
5086;DHT22;4715;51.660;7.082;2023-08-17T08:24:51;19.10;99.90
5086;DHT22;4715;51.660;7.082;2023-08-17T08:27:17;19.10;99.90
5086;DHT22;4715;51.660;7.082;2023-08-17T08:29:39;19.10;99.90
5086;DHT22;4715;51.660;7.082;2023-08-17T08:32:04;19.10;99.90
5086;DHT22;4715;51.660;7.082;2023-08-17T08:34:27;19.20;99.90
5086;DHT22;4715;51.660;7.082;2023-08-17T08:36:52;19.30;99.90
5086;DHT22;4715;51.660;7.082;2023-08-17T08:39:16;19.30;99.90
5086;DHT22;4715;51.660;7.082;2023-08-17T08:41:38;19.30;99.90
5086;DHT22;4715;51.660;7.082;2023-08-17T08:44:03;19.20;99.90
5086;DHT22;4715;51.660;7.082;2023-08-17T08:46:27;19.30;99.90
5086;DHT22;4715;51.660;7.082;2023-08-17T08:48:52;19.30;99.90
5086;DHT22;4715;51.660;7.082;2023-08-17T08:51:17;19.30;99.90
5086;DHT22;4715;51.660;7.082;2023-08-17T08:53:45;19.40;99.90
5086;DHT22;4715;51.660;7.082;2023-08-17T08:56:11;19.40;99.90
5086;DHT22;4715;51.660;7.082;2023-08-17T08:58:34;19.40;99.90
5086;DHT22;4715;51.660;7.082;2023-08-17T09:00:57;19.50;99.90
5086;DHT22;4715;51.660;7.082;2023-08-17T09:03:20;19.50;99.90
5086;DHT22;4715;51.660;7.082;2023-08-17T09:05:58;19.50;99.90
5086;DHT22;4715;51.660;7.082;2023-08-17T09:08:30;19.60;99.90
5086;DHT22;4715;51.660;7.082;2023-08-17T09:11:11;19.60;99.90
5086;DHT22;4715;51.660;7.082;2023-08-17T09:13:32;19.60;99.90
5086;DHT22;4715;51.660;7.082;2023-08-17T09:15:56;19.60;99.90
5086;DHT22;4715;51.660;7.082;2023-08-17T09:18:20;19.60;99.90
5086;DHT22;4715;51.660;7.082;2023-08-17T09:20:47;19.60;99.90
5086;DHT22;4715;51.660;7.082;2023-08-17T09:23:14;19.60;99.90
5086;DHT22;4715;51.660;7.082;2023-08-17T09:25:40;19.60;99.90
5086;DHT22;4715;51.660;7.082;2023-08-17T09:28:19;19.60;99.90
5086;DHT22;4715;51.660;7.082;2023-08-17T09:30:52;19.70;99.90
5086;DHT22;4715;51.660;7.082;2023-08-17T09:33:16;19.60;99.90
5086;DHT22;4715;51.660;7.082;2023-08-17T09:35:41;19.60;99.90
5086;DHT22;4715;51.660;7.082;2023-08-17T09:38:05;19.60;99.90
5086;DHT22;4715;51.660;7.082;2023-08-17T09:40:27;19.60;99.90
5086;DHT22;4715;51.660;7.082;2023-08-17T09:42:49;19.60;99.90
5086;DHT22;4715;51.660;7.082;2023-08-17T09:45:18;19.70;99.90
5086;DHT22;4715;51.660;7.082;2023-08-17T09:47:42;19.70;99.90
5086;DHT22;4715;51.660;7.082;2023-08-17T09:50:05;19.70;99.90
5086;DHT22;4715;51.660;7.082;2023-08-17T09:52:27;19.70;99.90
5086;DHT22;4715;51.660;7.082;2023-08-17T09:54:52;19.80;99.90
5086;DHT22;4715;51.660;7.082;2023-08-17T09:57:16;19.70;99.90
5086;DHT22;4715;51.660;7.082;2023-08-17T09:59:38;19.80;99.90
5086;DHT22;4715;51.660;7.082;2023-08-17T10:02:03;19.70;99.90
5086;DHT22;4715;51.660;7.082;2023-08-17T10:04:28;19.80;99.90
5086;DHT22;4715;51.660;7.082;2023-08-17T10:06:58;19.80;99.90
5086;DHT22;4715;51.660;7.082;2023-08-17T10:09:24;19.80;99.90
5086;DHT22;4715;51.660;7.082;2023-08-17T10:11:50;19.80;99.90
5086;DHT22;4715;51.660;7.082;2023-08-17T10:14:17;19.90;99.90
5086;DHT22;4715;51.660;7.082;2023-08-17T10:16:44;19.90;99.90
5086;DHT22;4715;51.660;7.082;2023-08-17T10:19:18;19.90;99.90
5086;DHT22;4715;51.660;7.082;2023-08-17T10:21:46;19.90;99.90
5086;DHT22;4715;51.660;7.082;2023-08-17T10:24:11;19.90;99.90
5086;DHT22;4715;51.660;7.082;2023-08-17T10:26:33;19.90;99.90
5086;DHT22;4715;51.660;7.082;2023-08-17T10:29:02;19.90;99.90
5086;DHT22;4715;51.660;7.082;2023-08-17T10:31:25;19.90;99.90
5086;DHT22;4715;51.660;7.082;2023-08-17T10:33:47;19.90;99.90
5086;DHT22;4715;51.660;7.082;2023-08-17T10:36:11;19.90;99.90
5086;DHT22;4715;51.660;7.082;2023-08-17T10:38:33;19.90;99.90
5086;DHT22;4715;51.660;7.082;2023-08-17T10:41:10;20.00;99.90
5086;DHT22;4715;51.660;7.082;2023-08-17T10:43:33;20.00;99.90
5086;DHT22;4715;51.660;7.082;2023-08-17T10:45:55;20.00;99.90
5086;DHT22;4715;51.660;7.082;2023-08-17T10:48:29;20.00;99.90
5086;DHT22;4715;51.660;7.082;2023-08-17T10:51:10;20.00;99.90
5086;DHT22;4715;51.660;7.082;2023-08-17T10:53:37;20.10;99.90
5086;DHT22;4715;51.660;7.082;2023-08-17T10:56:07;20.10;99.90
5086;DHT22;4715;51.660;7.082;2023-08-17T10:58:31;20.10;99.90
5086;DHT22;4715;51.660;7.082;2023-08-17T11:00:55;20.20;99.90
5086;DHT22;4715;51.660;7.082;2023-08-17T11:03:18;20.20;99.90
5086;DHT22;4715;51.660;7.082;2023-08-17T11:05:47;20.20;99.90
5086;DHT22;4715;51.660;7.082;2023-08-17T11:08:20;20.30;99.90
5086;DHT22;4715;51.660;7.082;2023-08-17T11:10:57;20.30;99.90
5086;DHT22;4715;51.660;7.082;2023-08-17T11:13:19;20.30;99.90
5086;DHT22;4715;51.660;7.082;2023-08-17T11:15:42;20.30;99.90
5086;DHT22;4715;51.660;7.082;2023-08-17T11:18:06;20.30;99.90
5086;DHT22;4715;51.660;7.082;2023-08-17T11:20:29;20.30;99.90
5086;DHT22;4715;51.660;7.082;2023-08-17T11:22:50;20.30;99.90
5086;DHT22;4715;51.660;7.082;2023-08-17T11:25:15;20.40;99.90
5086;DHT22;4715;51.660;7.082;2023-08-17T11:27:38;20.40;99.90
5086;DHT22;4715;51.660;7.082;2023-08-17T11:30:00;20.40;99.90
5086;DHT22;4715;51.660;7.082;2023-08-17T11:32:24;20.50;99.90
5086;DHT22;4715;51.660;7.082;2023-08-17T11:34:46;20.50;99.90
5086;DHT22;4715;51.660;7.082;2023-08-17T11:37:08;20.40;99.90
5086;DHT22;4715;51.660;7.082;2023-08-17T11:39:33;20.50;99.90
5086;DHT22;4715;51.660;7.082;2023-08-17T11:41:58;20.50;99.90
5086;DHT22;4715;51.660;7.082;2023-08-17T11:44:20;20.40;99.90
5086;DHT22;4715;51.660;7.082;2023-08-17T11:46:42;20.50;99.90
5086;DHT22;4715;51.660;7.082;2023-08-17T11:49:05;20.50;99.90
5086;DHT22;4715;51.660;7.082;2023-08-17T11:51:30;20.40;99.90
5086;DHT22;4715;51.660;7.082;2023-08-17T11:53:52;20.50;99.90
5086;DHT22;4715;51.660;7.082;2023-08-17T11:56:14;20.50;99.90
5086;DHT22;4715;51.660;7.082;2023-08-17T11:58:52;20.50;99.90
5086;DHT22;4715;51.660;7.082;2023-08-17T12:01:14;20.60;99.90
5086;DHT22;4715;51.660;7.082;2023-08-17T12:03:38;20.60;99.90
5086;DHT22;4715;51.660;7.082;2023-08-17T12:06:04;20.60;99.90
5086;DHT22;4715;51.660;7.082;2023-08-17T12:08:26;20.60;99.90
5086;DHT22;4715;51.660;7.082;2023-08-17T12:10:48;20.60;99.90
5086;DHT22;4715;51.660;7.082;2023-08-17T12:13:11;20.70;99.90
5086;DHT22;4715;51.660;7.082;2023-08-17T12:15:38;20.70;99.90
5086;DHT22;4715;51.660;7.082;2023-08-17T12:18:02;20.70;99.90
5086;DHT22;4715;51.660;7.082;2023-08-17T12:20:24;20.80;99.90
5086;DHT22;4715;51.660;7.082;2023-08-17T12:22:47;20.70;99.90
5086;DHT22;4715;51.660;7.082;2023-08-17T12:25:09;20.80;99.90
5086;DHT22;4715;51.660;7.082;2023-08-17T12:27:32;20.80;99.90
5086;DHT22;4715;51.660;7.082;2023-08-17T12:29:53;20.80;99.90
5086;DHT22;4715;51.660;7.082;2023-08-17T12:32:19;20.80;99.90
5086;DHT22;4715;51.660;7.082;2023-08-17T12:34:41;20.80;99.90
5086;DHT22;4715;51.660;7.082;2023-08-17T12:37:04;20.80;99.90
5086;DHT22;4715;51.660;7.082;2023-08-17T12:39:26;20.80;99.90
5086;DHT22;4715;51.660;7.082;2023-08-17T12:41:50;20.80;99.90
5086;DHT22;4715;51.660;7.082;2023-08-17T12:44:12;20.80;99.90
5086;DHT22;4715;51.660;7.082;2023-08-17T12:46:34;20.90;99.90
5086;DHT22;4715;51.660;7.082;2023-08-17T12:48:57;20.90;99.90
5086;DHT22;4715;51.660;7.082;2023-08-17T12:51:19;20.90;99.90
5086;DHT22;4715;51.660;7.082;2023-08-17T12:53:41;20.90;99.90
5086;DHT22;4715;51.660;7.082;2023-08-17T12:56:04;20.90;99.90
5086;DHT22;4715;51.660;7.082;2023-08-17T12:58:25;20.90;99.90
5086;DHT22;4715;51.660;7.082;2023-08-17T13:00:47;21.00;99.90
5086;DHT22;4715;51.660;7.082;2023-08-17T13:03:10;21.00;99.90
5086;DHT22;4715;51.660;7.082;2023-08-17T13:05:34;21.00;99.90
5086;DHT22;4715;51.660;7.082;2023-08-17T13:07:55;21.00;99.90
5086;DHT22;4715;51.660;7.082;2023-08-17T13:10:18;21.00;99.90
5086;DHT22;4715;51.660;7.082;2023-08-17T13:12:42;21.10;99.90
5086;DHT22;4715;51.660;7.082;2023-08-17T13:15:05;21.10;99.90
5086;DHT22;4715;51.660;7.082;2023-08-17T13:17:27;21.10;99.90
5086;DHT22;4715;51.660;7.082;2023-08-17T13:19:48;21.20;99.90
5086;DHT22;4715;51.660;7.082;2023-08-17T13:22:12;21.20;99.90
5086;DHT22;4715;51.660;7.082;2023-08-17T13:24:34;21.20;99.90
5086;DHT22;4715;51.660;7.082;2023-08-17T13:26:56;21.20;99.90
5086;DHT22;4715;51.660;7.082;2023-08-17T13:29:18;21.20;99.90
5086;DHT22;4715;51.660;7.082;2023-08-17T13:31:41;21.20;99.90
5086;DHT22;4715;51.660;7.082;2023-08-17T13:34:03;21.20;99.90
5086;DHT22;4715;51.660;7.082;2023-08-17T13:36:25;21.30;99.90
5086;DHT22;4715;51.660;7.082;2023-08-17T13:38:51;21.30;99.90
5086;DHT22;4715;51.660;7.082;2023-08-17T13:41:13;21.30;99.90
5086;DHT22;4715;51.660;7.082;2023-08-17T13:43:38;21.30;99.90
5086;DHT22;4715;51.660;7.082;2023-08-17T13:45:59;21.40;99.90
5086;DHT22;4715;51.660;7.082;2023-08-17T13:48:21;21.40;99.90
5086;DHT22;4715;51.660;7.082;2023-08-17T13:50:43;21.40;99.90
5086;DHT22;4715;51.660;7.082;2023-08-17T13:53:05;21.40;99.90
5086;DHT22;4715;51.660;7.082;2023-08-17T13:55:29;21.50;99.90
5086;DHT22;4715;51.660;7.082;2023-08-17T13:57:52;21.50;99.90
5086;DHT22;4715;51.660;7.082;2023-08-17T14:00:16;21.50;99.90
5086;DHT22;4715;51.660;7.082;2023-08-17T14:02:37;21.50;99.90
5086;DHT22;4715;51.660;7.082;2023-08-17T14:04:59;21.50;99.90
5086;DHT22;4715;51.660;7.082;2023-08-17T14:07:22;21.50;99.90
5086;DHT22;4715;51.660;7.082;2023-08-17T14:09:44;21.40;99.90
5086;DHT22;4715;51.660;7.082;2023-08-17T14:12:08;21.40;99.90
5086;DHT22;4715;51.660;7.082;2023-08-17T14:14:30;21.40;99.90
5086;DHT22;4715;51.660;7.082;2023-08-17T14:16:53;21.40;99.90
5086;DHT22;4715;51.660;7.082;2023-08-17T14:19:15;21.30;99.90
5086;DHT22;4715;51.660;7.082;2023-08-17T14:21:37;21.30;99.90
5086;DHT22;4715;51.660;7.082;2023-08-17T14:23:59;21.20;99.90
5086;DHT22;4715;51.660;7.082;2023-08-17T14:26:23;21.20;99.90
5086;DHT22;4715;51.660;7.082;2023-08-17T14:28:46;21.20;99.90
5086;DHT22;4715;51.660;7.082;2023-08-17T14:31:08;21.20;99.90
5086;DHT22;4715;51.660;7.082;2023-08-17T14:33:32;21.20;99.90
5086;DHT22;4715;51.660;7.082;2023-08-17T14:35:54;21.20;99.90
5086;DHT22;4715;51.660;7.082;2023-08-17T14:38:15;21.20;99.90
5086;DHT22;4715;51.660;7.082;2023-08-17T14:40:37;21.20;99.90
5086;DHT22;4715;51.660;7.082;2023-08-17T14:42:59;21.20;99.90
5086;DHT22;4715;51.660;7.082;2023-08-17T14:45:23;21.20;99.90
5086;DHT22;4715;51.660;7.082;2023-08-17T14:47:50;21.10;99.90
5086;DHT22;4715;51.660;7.082;2023-08-17T14:50:12;21.10;99.90
5086;DHT22;4715;51.660;7.082;2023-08-17T14:52:34;21.10;99.90
5086;DHT22;4715;51.660;7.082;2023-08-17T14:54:56;21.10;99.90
5086;DHT22;4715;51.660;7.082;2023-08-17T14:57:18;21.10;99.90
5086;DHT22;4715;51.660;7.082;2023-08-17T14:59:40;21.10;99.90
5086;DHT22;4715;51.660;7.082;2023-08-17T15:02:03;21.10;99.90
5086;DHT22;4715;51.660;7.082;2023-08-17T15:04:26;21.10;99.90
5086;DHT22;4715;51.660;7.082;2023-08-17T15:06:48;21.10;99.90
5086;DHT22;4715;51.660;7.082;2023-08-17T15:09:10;21.00;99.90
5086;DHT22;4715;51.660;7.082;2023-08-17T15:11:31;21.00;99.90
5086;DHT22;4715;51.660;7.082;2023-08-17T15:13:53;21.00;99.90
5086;DHT22;4715;51.660;7.082;2023-08-17T15:16:15;21.00;99.90
5086;DHT22;4715;51.660;7.082;2023-08-17T15:18:39;21.00;99.90
5086;DHT22;4715;51.660;7.082;2023-08-17T15:21:01;21.00;99.90
5086;DHT22;4715;51.660;7.082;2023-08-17T15:23:22;21.00;99.90
5086;DHT22;4715;51.660;7.082;2023-08-17T15:25:44;21.00;99.90
5086;DHT22;4715;51.660;7.082;2023-08-17T15:28:06;21.00;99.90
5086;DHT22;4715;51.660;7.082;2023-08-17T15:30:29;21.00;99.90
5086;DHT22;4715;51.660;7.082;2023-08-17T15:32:51;21.10;99.90
5086;DHT22;4715;51.660;7.082;2023-08-17T15:35:14;21.10;99.90